Time;durP1;ratioP1;P1;durP2;ratioP2;P2;SDS_P1;SDS_P2;PMS_P1;PMS_P2;Temp;Humidity;BMP_temperature;BMP_pressure;BME280_temperature;BME280_humidity;BME280_pressure;Samples;Min_cycle;Max_cycle;Signal;HPM_P1;HPM_P2
2023/05/06 00:01:55;;;;;;;7.97;4.40;;;15.00;51.00;;;;;;4921798;29;20176;-81
2023/05/06 00:04:20;;;;;;;8.30;4.57;;;15.00;53.00;;;;;;4921903;29;20607;-81
2023/05/06 00:06:47;;;;;;;10.13;5.50;;;14.80;55.10;;;;;;4921673;29;20221;-86
2023/05/06 00:09:13;;;;;;;8.07;4.80;;;14.80;56.70;;;;;;4925888;29;20163;-80
2023/05/06 00:11:39;;;;;;;9.23;5.50;;;14.80;56.40;;;;;;4927566;29;20201;-81
2023/05/06 00:14:05;;;;;;;9.80;4.87;;;14.80;57.50;;;;;;4936371;29;20229;-83
2023/05/06 00:16:31;;;;;;;7.40;4.43;;;14.80;58.40;;;;;;4936767;29;20221;-81
2023/05/06 00:18:57;;;;;;;8.03;5.20;;;14.80;59.30;;;;;;4939924;28;20250;-85
2023/05/06 00:21:25;;;;;;;7.90;4.60;;;14.80;58.80;;;;;;4931951;29;20177;-82
2023/05/06 00:23:52;;;;;;;7.77;4.73;;;14.80;58.30;;;;;;4923258;29;20172;-81
2023/05/06 00:26:26;;;;;;;7.27;4.80;;;14.80;57.50;;;;;;4918326;29;20177;-81
2023/05/06 00:28:55;;;;;;;9.43;5.17;;;14.80;56.80;;;;;;4918051;29;20261;-82
2023/05/06 00:31:21;;;;;;;8.77;5.23;;;14.80;57.20;;;;;;4921961;29;20162;-85
2023/05/06 00:33:47;;;;;;;9.90;4.70;;;14.80;57.70;;;;;;4920874;29;20180;-79
2023/05/06 00:36:13;;;;;;;9.10;5.10;;;14.80;58.00;;;;;;4919402;29;20233;-86
2023/05/06 00:38:39;;;;;;;9.17;5.13;;;15.00;54.80;;;;;;4918262;29;20171;-79
2023/05/06 00:41:05;;;;;;;9.60;4.73;;;15.00;50.60;;;;;;4920060;29;20722;-80
2023/05/06 00:43:30;;;;;;;6.87;4.20;;;15.00;50.20;;;;;;4926441;29;20222;-77
2023/05/06 00:45:56;;;;;;;7.73;4.17;;;14.90;51.40;;;;;;4930290;29;20181;-79
2023/05/06 00:48:22;;;;;;;6.50;4.07;;;14.80;56.10;;;;;;4935677;28;20169;-81
2023/05/06 00:50:48;;;;;;;5.63;3.60;;;14.60;59.40;;;;;;4939456;28;20178;-79
2023/05/06 00:53:14;;;;;;;9.10;4.23;;;14.50;65.50;;;;;;4936034;28;20170;-78
2023/05/06 00:55:41;;;;;;;6.87;4.20;;;14.50;64.10;;;;;;4918580;29;20234;-78
2023/05/06 00:58:07;;;;;;;8.23;4.07;;;14.50;65.10;;;;;;4918408;29;20170;-82
2023/05/06 01:00:33;;;;;;;8.77;4.20;;;14.50;64.20;;;;;;4917946;29;20162;-84
2023/05/06 01:03:01;;;;;;;8.27;4.20;;;14.50;66.30;;;;;;4917538;29;20174;-79
2023/05/06 01:05:34;;;;;;;6.53;3.90;;;14.40;67.60;;;;;;4930551;28;20233;-85
2023/05/06 01:08:22;;;;;;;7.63;4.00;;;14.50;68.80;;;;;;4941308;28;20213;-80
2023/05/06 01:11:02;;;;;;;7.63;3.87;;;14.50;68.30;;;;;;4935591;29;20174;-80
2023/05/06 01:13:40;;;;;;;4.83;3.37;;;14.50;66.50;;;;;;4934433;29;20165;-88
2023/05/06 01:16:07;;;;;;;6.40;3.77;;;14.50;66.70;;;;;;4933163;29;20185;-81
2023/05/06 01:18:34;;;;;;;4.90;3.53;;;14.40;68.10;;;;;;4930830;29;20185;-84
2023/05/06 01:21:03;;;;;;;5.93;3.20;;;14.30;71.20;;;;;;4924612;29;20166;-82
2023/05/06 01:23:48;;;;;;;5.90;2.83;;;14.30;72.70;;;;;;4922914;29;20173;-80
2023/05/06 01:26:15;;;;;;;6.30;3.13;;;14.40;72.00;;;;;;4920822;29;20248;-86
2023/05/06 01:28:42;;;;;;;5.77;3.10;;;14.40;69.60;;;;;;4920681;29;20206;-80
2023/05/06 01:31:16;;;;;;;5.17;3.07;;;14.50;68.00;;;;;;4920610;29;20185;-80
2023/05/06 01:33:50;;;;;;;6.10;2.93;;;14.50;67.10;;;;;;4920264;29;20181;-86
2023/05/06 01:36:24;;;;;;;4.87;3.00;;;14.60;65.60;;;;;;4917337;29;20209;-79
2023/05/06 01:39:04;;;;;;;4.50;2.97;;;14.50;64.30;;;;;;4919968;29;20557;-84
2023/05/06 01:41:33;;;;;;;4.07;2.90;;;14.40;68.00;;;;;;4922535;29;20177;-84
2023/05/06 01:44:02;;;;;;;6.73;3.10;;;14.40;69.80;;;;;;4921063;29;20197;-79
2023/05/06 01:46:29;;;;;;;4.77;3.20;;;14.30;73.30;;;;;;4926653;29;20196;-80
2023/05/06 01:48:59;;;;;;;4.70;3.03;;;14.20;75.90;;;;;;4927969;29;20170;-77
2023/05/06 01:51:31;;;;;;;6.03;3.10;;;14.20;77.40;;;;;;4932734;29;20661;-77
2023/05/06 01:53:57;;;;;;;8.20;3.07;;;14.30;76.20;;;;;;4938942;29;20161;-80
2023/05/06 01:56:29;;;;;;;4.03;2.70;;;14.30;75.10;;;;;;4930556;29;20218;-79
2023/05/06 01:59:13;;;;;;;6.43;2.67;;;14.40;73.30;;;;;;4934118;29;20181;-79
2023/05/06 02:02:05;;;;;;;7.10;2.90;;;14.50;70.60;;;;;;4927880;29;20237;-83
2023/05/06 02:04:31;;;;;;;6.93;2.20;;;14.40;70.50;;;;;;4921417;29;20686;-82
2023/05/06 02:06:58;;;;;;;5.43;2.70;;;14.30;72.10;;;;;;4921056;29;20332;-82
2023/05/06 02:09:26;;;;;;;6.93;2.70;;;14.40;72.20;;;;;;4920969;29;20177;-85
2023/05/06 02:11:55;;;;;;;4.23;2.57;;;14.40;72.70;;;;;;4919775;29;20534;-82
2023/05/06 02:14:27;;;;;;;6.40;2.57;;;14.40;72.30;;;;;;4919803;29;20233;-80
2023/05/06 02:16:54;;;;;;;8.63;2.63;;;14.40;69.60;;;;;;4918954;29;20221;-80
2023/05/06 02:19:27;;;;;;;6.53;2.50;;;14.40;70.90;;;;;;4920406;29;20173;-80
2023/05/06 02:21:53;;;;;;;7.60;2.77;;;14.30;71.10;;;;;;4920288;29;20255;-85
2023/05/06 02:24:19;;;;;;;5.43;2.70;;;14.30;70.90;;;;;;4920588;29;20268;-81
2023/05/06 02:26:44;;;;;;;5.63;2.87;;;14.30;73.10;;;;;;4918828;29;20641;-77
2023/05/06 02:29:10;;;;;;;6.87;2.47;;;14.40;71.80;;;;;;4920212;29;20183;-83
2023/05/06 02:31:37;;;;;;;5.03;2.53;;;14.40;69.70;;;;;;4920657;29;20158;-79
2023/05/06 02:34:03;;;;;;;5.87;2.77;;;14.30;72.00;;;;;;4919622;29;20179;-84
2023/05/06 02:36:29;;;;;;;8.27;2.70;;;14.20;75.50;;;;;;4919817;29;20209;-83
2023/05/06 02:38:55;;;;;;;4.87;2.60;;;14.20;76.70;;;;;;4920139;29;20174;-82
2023/05/06 02:41:20;;;;;;;7.53;3.03;;;14.10;78.80;;;;;;4918459;29;20322;-80
2023/05/06 02:43:46;;;;;;;4.00;2.50;;;14.00;80.70;;;;;;4922351;29;20228;-84
2023/05/06 02:46:12;;;;;;;5.03;2.67;;;14.10;82.00;;;;;;4920362;29;20182;-80
2023/05/06 02:48:38;;;;;;;5.17;3.00;;;14.10;81.00;;;;;;4920091;29;20642;-83
2023/05/06 02:51:05;;;;;;;4.97;3.00;;;14.20;80.20;;;;;;4920119;29;20177;-85
2023/05/06 02:53:30;;;;;;;5.77;3.37;;;14.20;77.90;;;;;;4918522;29;20166;-79
2023/05/06 02:55:56;;;;;;;6.23;3.40;;;14.30;78.10;;;;;;4918901;29;20608;-81
2023/05/06 02:58:22;;;;;;;8.00;3.40;;;14.20;77.90;;;;;;4917459;29;20177;-81
2023/05/06 03:00:47;;;;;;;7.87;4.37;;;14.20;77.40;;;;;;4917814;29;20201;-78
2023/05/06 03:03:13;;;;;;;5.70;3.87;;;14.30;78.50;;;;;;4917668;29;20639;-83
2023/05/06 03:05:39;;;;;;;6.20;3.57;;;14.20;76.90;;;;;;4918576;29;20194;-79
2023/05/06 03:08:05;;;;;;;6.60;3.60;;;14.20;77.10;;;;;;4917777;29;20194;-82
2023/05/06 03:10:31;;;;;;;6.13;4.10;;;14.20;76.90;;;;;;4917442;29;20176;-85
2023/05/06 03:12:56;;;;;;;6.13;3.80;;;14.20;77.70;;;;;;4918948;29;20261;-78
2023/05/06 03:15:22;;;;;;;7.90;3.70;;;14.10;79.60;;;;;;4917754;29;20197;-80
2023/05/06 03:17:48;;;;;;;7.87;4.57;;;14.10;80.70;;;;;;4919651;29;20538;-83
2023/05/06 03:20:14;;;;;;;7.30;4.00;;;14.10;81.40;;;;;;4918346;29;20186;-83
2023/05/06 03:22:41;;;;;;;7.13;4.20;;;14.20;79.10;;;;;;4919032;29;20310;-80
2023/05/06 03:25:07;;;;;;;6.27;3.80;;;14.10;80.80;;;;;;4916434;29;20694;-82
2023/05/06 03:27:33;;;;;;;7.87;4.17;;;14.10;82.10;;;;;;4919779;29;20170;-78
2023/05/06 03:29:59;;;;;;;6.57;4.30;;;14.00;84.60;;;;;;4937647;29;20237;-82
2023/05/06 03:32:24;;;;;;;7.00;4.00;;;14.10;84.20;;;;;;4937764;29;20178;-79
2023/05/06 03:34:50;;;;;;;6.27;4.00;;;14.10;83.80;;;;;;4941548;28;20178;-79
2023/05/06 03:37:21;;;;;;;7.30;4.37;;;14.00;84.70;;;;;;4935031;28;20226;-81
2023/05/06 03:39:50;;;;;;;7.70;4.40;;;14.10;85.10;;;;;;4921405;29;20170;-80
2023/05/06 03:42:19;;;;;;;8.60;4.43;;;14.20;84.60;;;;;;4918883;29;20218;-84
2023/05/06 03:45:01;;;;;;;8.30;4.47;;;14.20;82.10;;;;;;4918562;29;20166;-78
2023/05/06 03:47:27;;;;;;;8.27;4.67;;;14.40;76.30;;;;;;4935994;28;20221;-80
2023/05/06 03:49:52;;;;;;;9.27;4.43;;;14.30;73.30;;;;;;4935342;28;20186;-80
2023/05/06 03:52:18;;;;;;;7.47;4.67;;;14.30;74.90;;;;;;4925344;29;20178;-78
2023/05/06 03:54:49;;;;;;;7.67;4.50;;;14.30;75.40;;;;;;4919913;29;20533;-80
2023/05/06 03:57:18;;;;;;;7.70;5.07;;;14.40;74.50;;;;;;4918112;29;20297;-81
2023/05/06 03:59:44;;;;;;;8.03;4.47;;;14.40;74.00;;;;;;4918919;29;20213;-79
2023/05/06 04:02:09;;;;;;;7.23;4.30;;;14.40;73.50;;;;;;4931424;29;20236;-78
2023/05/06 04:04:38;;;;;;;7.07;4.67;;;14.40;73.20;;;;;;4938807;29;20170;-78
2023/05/06 04:07:04;;;;;;;7.27;4.43;;;14.50;72.00;;;;;;4939963;28;20177;-82
2023/05/06 04:09:31;;;;;;;6.90;4.67;;;14.50;72.00;;;;;;4942201;28;20250;-82
2023/05/06 04:12:05;;;;;;;7.20;4.60;;;14.50;70.90;;;;;;4939270;28;20251;-78
2023/05/06 04:14:38;;;;;;;6.00;4.30;;;14.60;69.30;;;;;;4934939;29;20173;-82
2023/05/06 04:17:07;;;;;;;8.13;4.73;;;14.70;63.30;;;;;;4919579;29;20248;-84
2023/05/06 04:19:43;;;;;;;6.90;4.40;;;14.80;58.80;;;;;;4918542;29;20162;-86
2023/05/06 04:22:08;;;;;;;8.83;4.33;;;14.90;56.20;;;;;;4917938;29;20209;-83
2023/05/06 04:24:34;;;;;;;7.93;4.53;;;14.80;58.70;;;;;;4917982;29;20217;-85
2023/05/06 04:27:02;;;;;;;8.30;4.13;;;14.60;60.50;;;;;;4918464;29;20626;-84
2023/05/06 04:29:27;;;;;;;6.70;4.60;;;14.70;59.90;;;;;;4917069;29;20178;-80
2023/05/06 04:31:54;;;;;;;6.93;4.97;;;14.70;60.70;;;;;;4916249;29;20177;-78
2023/05/06 04:34:19;;;;;;;7.07;4.60;;;14.70;62.00;;;;;;4918448;29;20570;-82
2023/05/06 04:36:46;;;;;;;7.57;4.33;;;14.70;62.50;;;;;;4917461;29;20216;-78
2023/05/06 04:39:13;;;;;;;9.27;4.10;;;14.70;63.20;;;;;;4916669;29;20646;-80
2023/05/06 04:41:38;;;;;;;7.63;4.50;;;14.70;64.60;;;;;;4917474;29;20170;-82
2023/05/06 04:44:04;;;;;;;6.00;4.20;;;14.70;64.90;;;;;;4917367;29;20170;-80
2023/05/06 04:46:30;;;;;;;7.10;4.10;;;14.70;65.90;;;;;;4917436;29;20187;-85
2023/05/06 04:48:57;;;;;;;6.00;3.80;;;14.60;68.10;;;;;;4918296;29;20170;-86
2023/05/06 04:51:22;;;;;;;6.10;3.97;;;14.80;69.30;;;;;;4916638;29;20174;-81
2023/05/06 04:53:48;;;;;;;7.20;4.17;;;14.80;68.10;;;;;;4918029;29;20260;-83
2023/05/06 04:56:14;;;;;;;6.00;3.80;;;14.80;66.40;;;;;;4917994;29;20197;-85
2023/05/06 04:58:39;;;;;;;5.70;3.77;;;14.90;65.60;;;;;;4916403;29;20170;-79
2023/05/06 05:01:07;;;;;;;5.30;3.60;;;15.00;62.80;;;;;;4917532;29;20530;-81
2023/05/06 05:03:33;;;;;;;5.77;3.87;;;15.10;58.80;;;;;;4917600;29;20193;-85
2023/05/06 05:05:59;;;;;;;4.90;3.73;;;15.10;57.40;;;;;;4916733;29;20218;-79
2023/05/06 05:08:25;;;;;;;6.43;3.43;;;15.20;57.60;;;;;;4918084;29;20177;-84
2023/05/06 05:10:50;;;;;;;6.77;3.57;;;15.30;54.70;;;;;;4918420;29;20177;-82
2023/05/06 05:13:16;;;;;;;8.03;3.60;;;15.30;53.70;;;;;;4920570;29;20554;-80
2023/05/06 05:15:42;;;;;;;5.07;3.40;;;15.30;54.20;;;;;;4918079;29;20607;-80
2023/05/06 05:18:07;;;;;;;5.70;3.70;;;15.30;53.60;;;;;;4923747;29;20189;-80
2023/05/06 05:20:33;;;;;;;6.27;3.80;;;15.30;55.00;;;;;;4923635;29;20166;-77
2023/05/06 05:22:59;;;;;;;5.67;4.00;;;15.40;53.00;;;;;;4922992;29;20178;-83
2023/05/06 05:25:25;;;;;;;5.63;3.80;;;15.50;52.30;;;;;;4923702;29;20221;-80
2023/05/06 05:27:51;;;;;;;5.77;3.67;;;15.60;50.80;;;;;;4921506;29;20636;-82
2023/05/06 05:30:17;;;;;;;7.60;4.10;;;15.70;48.70;;;;;;4922057;29;20188;-82
2023/05/06 05:32:43;;;;;;;4.37;3.23;;;15.70;44.40;;;;;;4923783;29;20170;-83
2023/05/06 05:35:11;;;;;;;6.43;3.87;;;15.60;44.70;;;;;;4923719;29;20173;-81
2023/05/06 05:37:37;;;;;;;5.07;3.10;;;15.50;47.90;;;;;;4922006;29;20173;-79
2023/05/06 05:40:03;;;;;;;6.27;3.50;;;15.60;47.30;;;;;;4920848;29;20400;-80
2023/05/06 05:42:32;;;;;;;5.70;3.07;;;15.60;45.10;;;;;;4920358;29;20647;-84
2023/05/06 05:44:59;;;;;;;7.47;3.83;;;15.70;45.90;;;;;;4920667;29;20170;-84
2023/05/06 05:47:25;;;;;;;6.40;3.00;;;15.70;43.40;;;;;;4920844;29;20173;-84
2023/05/06 05:49:50;;;;;;;5.13;3.20;;;15.70;42.10;;;;;;4920595;29;20170;-85
2023/05/06 05:52:16;;;;;;;7.20;3.13;;;15.80;42.50;;;;;;4920318;29;20624;-85
2023/05/06 05:54:42;;;;;;;5.70;3.13;;;15.90;40.60;;;;;;4920489;29;20202;-82
2023/05/06 05:57:09;;;;;;;5.40;2.93;;;16.00;37.40;;;;;;4919620;29;20699;-78
2023/05/06 05:59:35;;;;;;;4.90;2.90;;;16.00;34.60;;;;;;4920305;29;20176;-85
2023/05/06 06:02:00;;;;;;;5.17;3.00;;;16.10;34.60;;;;;;4920453;29;20172;-84
2023/05/06 06:04:26;;;;;;;4.23;2.90;;;16.10;31.90;;;;;;4920991;29;20174;-84
2023/05/06 06:06:52;;;;;;;6.17;3.00;;;16.20;31.80;;;;;;4920865;29;20708;-84
2023/05/06 06:09:18;;;;;;;5.40;3.17;;;16.20;29.00;;;;;;4922270;29;20186;-79
2023/05/06 06:11:44;;;;;;;4.27;3.37;;;16.00;31.60;;;;;;4931555;29;20179;-80
2023/05/06 06:14:10;;;;;;;5.67;3.17;;;16.20;30.40;;;;;;4938319;29;20197;-82
2023/05/06 06:16:36;;;;;;;6.87;3.87;;;16.30;29.40;;;;;;4940109;28;20222;-84
2023/05/06 06:19:02;;;;;;;5.60;3.90;;;16.50;24.20;;;;;;4925785;29;20176;-80
2023/05/06 06:21:38;;;;;;;5.97;3.60;;;16.60;19.90;;;;;;4921668;29;20162;-80
2023/05/06 06:24:04;;;;;;;5.60;4.00;;;16.70;19.40;;;;;;4928001;29;20263;-82
2023/05/06 06:26:30;;;;;;;6.77;3.40;;;16.80;19.70;;;;;;4939333;29;20199;-79
2023/05/06 06:28:56;;;;;;;6.37;3.83;;;16.80;18.90;;;;;;4937797;29;20214;-85
2023/05/06 06:31:21;;;;;;;5.57;3.60;;;16.80;19.50;;;;;;4939688;29;20176;-84
2023/05/06 06:33:47;;;;;;;5.80;3.70;;;16.70;20.20;;;;;;4938377;29;20611;-79
2023/05/06 06:36:13;;;;;;;7.03;4.00;;;16.80;20.20;;;;;;4940070;29;20243;-80
2023/05/06 06:38:40;;;;;;;5.57;3.67;;;16.80;19.90;;;;;;4942161;29;20261;-82
2023/05/06 06:41:07;;;;;;;5.90;3.63;;;16.90;19.40;;;;;;4951819;29;20708;-83
2023/05/06 06:43:32;;;;;;;5.80;3.40;;;16.90;18.90;;;;;;4959552;28;20214;-84
2023/05/06 06:45:58;;;;;;;5.20;3.47;;;17.00;18.50;;;;;;4959268;28;20177;-79
2023/05/06 06:48:25;;;;;;;5.97;3.73;;;17.20;15.30;;;;;;4960420;28;20187;-80
2023/05/06 06:50:51;;;;;;;7.97;3.87;;;17.20;15.70;;;;;;4959420;28;20191;-80
2023/05/06 06:53:16;;;;;;;7.10;3.80;;;17.30;14.00;;;;;;4954454;29;20154;-79
2023/05/06 06:55:43;;;;;;;7.27;3.73;;;17.30;14.00;;;;;;4943663;29;20206;-83
2023/05/06 06:58:12;;;;;;;5.40;3.17;;;17.40;15.00;;;;;;4938381;29;20561;-80
2023/05/06 07:00:38;;;;;;;6.70;3.20;;;17.50;8.90;;;;;;4938044;29;20238;-79
2023/05/06 07:03:03;;;;;;;5.30;3.00;;;17.50;7.30;;;;;;4938555;29;20648;-82
2023/05/06 07:05:29;;;;;;;6.37;3.00;;;17.50;9.40;;;;;;4953448;29;20525;-81
2023/05/06 07:07:55;;;;;;;6.10;3.33;;;17.50;11.10;;;;;;4941808;28;20216;-82
2023/05/06 07:10:21;;;;;;;5.30;2.83;;;17.70;5.60;;;;;;4961011;28;20322;-81
2023/05/06 07:12:47;;;;;;;7.40;3.20;;;17.70;4.60;;;;;;4955004;28;20188;-79
2023/05/06 07:15:12;;;;;;;6.90;3.00;;;17.70;7.30;;;;;;4945300;29;20172;-86
2023/05/06 07:17:38;;;;;;;7.97;3.00;;;17.70;4.30;;;;;;4941577;29;20532;-80
2023/05/06 07:20:07;;;;;;;5.80;2.93;;;17.60;7.00;;;;;;4952955;29;20211;-80
2023/05/06 07:22:33;;;;;;;5.70;2.80;;;17.50;14.90;;;;;;4938180;29;20180;-83
2023/05/06 07:24:59;;;;;;;6.80;3.10;;;17.40;16.90;;;;;;4937958;29;20184;-80
2023/05/06 07:27:26;;;;;;;6.40;3.20;;;17.40;20.00;;;;;;4938359;29;20170;-81
2023/05/06 07:29:51;;;;;;;5.97;2.93;;;17.30;19.40;;;;;;4938199;29;20261;-82
2023/05/06 07:32:17;;;;;;;5.37;2.77;;;17.40;20.60;;;;;;4956888;29;20216;-80
2023/05/06 07:34:43;;;;;;;5.87;3.20;;;17.50;16.10;;;;;;4938407;29;20604;-80
2023/05/06 07:37:09;;;;;;;8.03;4.10;;;17.40;18.40;;;;;;4952199;29;20214;-79
2023/05/06 07:39:35;;;;;;;9.33;4.10;;;17.50;16.60;;;;;;4936984;29;20179;-81
2023/05/06 07:42:01;;;;;;;6.23;3.13;;;17.60;13.40;;;;;;4937547;29;20312;-83
2023/05/06 07:44:27;;;;;;;8.13;3.40;;;17.60;16.30;;;;;;4938395;29;20173;-80
2023/05/06 07:46:53;;;;;;;6.57;3.13;;;17.60;15.80;;;;;;4937545;29;20189;-82
2023/05/06 07:49:18;;;;;;;8.63;3.50;;;17.80;15.10;;;;;;4953396;29;20177;-80
2023/05/06 07:51:44;;;;;;;9.17;4.10;;;18.00;6.30;;;;;;4940893;29;20181;-81
2023/05/06 07:54:10;;;;;;;11.30;4.03;;;18.10;2.00;;;;;;4940650;29;20692;-84
2023/05/06 07:56:35;;;;;;;9.90;3.70;;;18.20;4.40;;;;;;4948435;29;20203;-80
2023/05/06 07:59:04;;;;;;;9.10;4.23;;;18.30;3.40;;;;;;4951872;29;20201;-78
2023/05/06 08:01:30;;;;;;;7.90;3.90;;;18.30;2.20;;;;;;4955211;29;20196;-84
2023/05/06 08:03:55;;;;;;;6.77;4.33;;;18.10;5.40;;;;;;4953321;29;20165;-83
2023/05/06 08:06:23;;;;;;;8.47;4.27;;;18.20;6.50;;;;;;4945579;29;20189;-85
2023/05/06 08:08:57;;;;;;;6.30;3.70;;;18.50;1.20;;;;;;4953396;29;20198;-85
2023/05/06 08:11:24;;;;;;;7.50;4.10;;;18.80;1.00;;;;;;4949832;29;20252;-85
2023/05/06 08:13:56;;;;;;;8.80;4.13;;;18.80;1.00;;;;;;4956846;29;20168;-83
2023/05/06 08:16:21;;;;;;;10.67;4.20;;;18.70;1.00;;;;;;4956763;28;20213;-80
2023/05/06 08:18:47;;;;;;;7.50;3.60;;;18.70;1.00;;;;;;4958026;28;20179;-81
2023/05/06 08:21:16;;;;;;;6.77;3.70;;;18.70;1.00;;;;;;4959860;28;20180;-81
2023/05/06 08:23:47;;;;;;;6.87;3.47;;;18.70;1.00;;;;;;4960469;28;20176;-86
2023/05/06 08:26:12;;;;;;;8.53;3.50;;;18.70;1.00;;;;;;4957940;28;20205;-80
2023/05/06 08:28:38;;;;;;;7.03;3.20;;;18.90;1.00;;;;;;4946159;29;20165;-85
2023/05/06 08:31:03;;;;;;;9.40;3.57;;;19.10;1.00;;;;;;4941049;29;20609;-85
2023/05/06 08:33:29;;;;;;;6.93;3.00;;;19.10;1.00;;;;;;4938043;29;20169;-85
2023/05/06 08:35:57;;;;;;;7.40;3.50;;;19.40;1.00;;;;;;4939380;29;20201;-86
2023/05/06 08:38:24;;;;;;;7.57;3.03;;;19.60;1.00;;;;;;4937801;29;20181;-82
2023/05/06 08:40:51;;;;;;;7.27;2.80;;;19.80;1.00;;;;;;4937494;29;20575;-83
2023/05/06 08:43:26;;;;;;;8.60;4.70;;;19.90;1.00;;;;;;4938462;29;20256;-85
2023/05/06 08:45:53;;;;;;;6.50;3.17;;;19.90;1.00;;;;;;4937792;29;20182;-84
2023/05/06 08:49:02;;;;;;;8.30;2.90;;;19.90;1.00;;;;;;4945152;29;20203;-90
2023/05/06 08:51:36;;;;;;;5.77;2.97;;;20.10;1.00;;;;;;4935855;29;20198;-86
2023/05/06 08:54:07;;;;;;;8.27;3.27;;;20.10;1.00;;;;;;4940893;29;20192;-88
2023/05/06 08:56:35;;;;;;;3.83;2.17;;;20.10;1.00;;;;;;4925525;29;20243;-87
2023/05/06 08:59:01;;;;;;;4.57;2.20;;;20.10;1.00;;;;;;4921124;29;20199;-88
2023/05/06 09:01:29;;;;;;;6.43;3.00;;;20.30;1.00;;;;;;4931373;29;20640;-89
2023/05/06 09:04:16;;;;;;;7.00;2.43;;;20.40;1.00;;;;;;4945821;29;20730;-89
2023/05/06 09:06:45;;;;;;;4.87;2.30;;;20.50;1.00;;;;;;4949059;29;20284;-89
2023/05/06 09:09:13;;;;;;;6.13;2.73;;;20.30;1.00;;;;;;4944680;29;20177;-90
2023/05/06 09:11:39;;;;;;;5.30;1.97;;;20.10;1.00;;;;;;4942746;29;20178;-88
2023/05/06 09:14:09;;;;;;;6.87;2.33;;;20.10;1.00;;;;;;4941076;29;20520;-89
2023/05/06 09:16:34;;;;;;;5.37;2.20;;;20.10;1.00;;;;;;4942178;29;20226;-89
2023/05/06 09:19:00;;;;;;;4.17;2.20;;;20.30;1.00;;;;;;4945152;29;20267;-86
2023/05/06 09:21:35;;;;;;;3.43;2.03;;;20.10;1.00;;;;;;4944003;29;20187;-89
2023/05/06 09:24:03;;;;;;;8.10;3.23;;;20.10;1.00;;;;;;4945317;29;20302;-86
2023/05/06 09:26:31;;;;;;;5.77;2.73;;;20.30;1.00;;;;;;4944342;29;20177;-88
2023/05/06 09:28:59;;;;;;;7.07;2.83;;;20.40;1.00;;;;;;4944526;29;20236;-88
2023/05/06 09:31:25;;;;;;;7.47;3.20;;;20.30;1.00;;;;;;4946541;29;20618;-89
2023/05/06 09:33:53;;;;;;;4.50;2.70;;;20.30;1.00;;;;;;4945236;29;20168;-91
2023/05/06 09:36:19;;;;;;;5.33;2.00;;;20.40;1.00;;;;;;4944164;29;20293;-90
2023/05/06 09:38:45;;;;;;;4.50;2.30;;;20.40;1.00;;;;;;4945536;29;20170;-90
2023/05/06 09:41:12;;;;;;;4.60;2.40;;;20.50;1.00;;;;;;4943289;29;20207;-84
2023/05/06 09:43:43;;;;;;;5.20;2.40;;;20.50;1.00;;;;;;4941398;29;20171;-89
2023/05/06 09:46:12;;;;;;;4.20;2.10;;;20.70;1.00;;;;;;4936032;29;20186;-89
2023/05/06 09:48:39;;;;;;;4.63;2.43;;;20.80;1.00;;;;;;4936145;29;20561;-84
2023/05/06 09:51:06;;;;;;;5.47;2.40;;;20.70;1.00;;;;;;4937133;29;20307;-80
2023/05/06 09:53:37;;;;;;;4.77;2.23;;;20.70;1.00;;;;;;4955447;28;20192;-84
2023/05/06 09:56:07;;;;;;;4.67;2.20;;;20.60;1.00;;;;;;4957588;28;20194;-88
2023/05/06 09:58:37;;;;;;;4.73;2.00;;;20.60;1.00;;;;;;4949288;29;20189;-80
2023/05/06 10:01:06;;;;;;;5.70;2.03;;;20.70;1.00;;;;;;4927971;29;20177;-81
2023/05/06 10:03:34;;;;;;;5.17;1.93;;;20.60;1.00;;;;;;4946488;29;20163;-78
2023/05/06 10:06:05;;;;;;;4.07;1.80;;;20.50;1.00;;;;;;4956765;29;20174;-79
2023/05/06 10:08:34;;;;;;;4.50;1.77;;;20.70;1.00;;;;;;4956398;29;20191;-80
2023/05/06 10:11:02;;;;;;;2.80;1.57;;;20.80;1.00;;;;;;4961197;28;20163;-82
2023/05/06 10:13:31;;;;;;;5.93;3.23;;;20.80;1.00;;;;;;4949015;29;20167;-80
2023/05/06 10:16:01;;;;;;;6.07;1.90;;;21.00;1.00;;;;;;4962378;28;20225;-83
2023/05/06 10:18:33;;;;;;;4.50;1.90;;;21.10;1.00;;;;;;4958250;28;20200;-84
2023/05/06 10:21:02;;;;;;;5.50;1.60;;;21.10;1.00;;;;;;4941676;29;20198;-81
2023/05/06 10:23:47;;;;;;;6.53;3.33;;;21.20;1.00;;;;;;4941636;29;20180;-83
2023/05/06 10:26:18;;;;;;;4.00;1.60;;;21.40;1.00;;;;;;4937926;29;20271;-82
2023/05/06 10:28:48;;;;;;;3.20;1.83;;;21.40;1.00;;;;;;4939392;29;20163;-85
2023/05/06 10:31:15;;;;;;;3.90;1.73;;;21.60;1.00;;;;;;4952572;29;20178;-79
2023/05/06 10:33:45;;;;;;;4.87;1.83;;;21.60;1.00;;;;;;4947230;29;20191;-79
2023/05/06 10:36:19;;;;;;;3.67;1.70;;;21.80;1.00;;;;;;4943611;29;20234;-81
2023/05/06 10:38:48;;;;;;;4.17;1.43;;;21.90;1.00;;;;;;4938199;29;20174;-81
2023/05/06 10:41:16;;;;;;;3.17;1.60;;;21.70;1.00;;;;;;4937649;29;20690;-79
2023/05/06 10:43:43;;;;;;;5.87;1.80;;;21.70;1.00;;;;;;4938201;29;20233;-81
2023/05/06 10:46:13;;;;;;;5.07;1.90;;;21.80;1.00;;;;;;4937845;29;20226;-83
2023/05/06 10:49:05;;;;;;;7.83;1.93;;;21.90;1.00;;;;;;4938252;29;20608;-83
2023/05/06 10:51:37;;;;;;;4.30;1.90;;;21.90;1.00;;;;;;4938803;29;20179;-86
2023/05/06 10:54:08;;;;;;;4.93;1.80;;;21.90;1.00;;;;;;4938388;29;20179;-79
2023/05/06 10:56:47;;;;;;;5.30;1.50;;;22.00;1.00;;;;;;4928309;29;20198;-79
2023/05/06 10:59:13;;;;;;;2.57;1.50;;;22.00;1.00;;;;;;4939383;29;20219;-83
2023/05/06 11:01:41;;;;;;;5.03;1.83;;;21.80;1.00;;;;;;4939033;29;20599;-82
2023/05/06 11:04:18;;;;;;;5.13;1.90;;;21.80;1.00;;;;;;4940535;29;20174;-81
2023/05/06 11:06:47;;;;;;;4.93;1.63;;;21.70;1.00;;;;;;4936695;29;20194;-81
2023/05/06 11:09:20;;;;;;;4.70;2.03;;;21.70;1.00;;;;;;4936580;29;20170;-84
2023/05/06 11:11:50;;;;;;;4.40;1.77;;;21.70;1.00;;;;;;4937492;29;20162;-82
2023/05/06 11:14:37;;;;;;;5.17;1.53;;;21.80;1.00;;;;;;4936974;29;20262;-86
2023/05/06 11:17:27;;;;;;;7.97;2.10;;;21.90;1.00;;;;;;4936973;29;20271;-86
2023/05/06 11:20:25;;;;;;;4.67;1.53;;;22.10;1.00;;;;;;4938764;29;20188;-87
2023/05/06 11:22:51;;;;;;;6.90;4.33;;;22.10;1.00;;;;;;4937656;29;20536;-83
2023/05/06 11:25:40;;;;;;;7.73;3.00;;;22.30;1.00;;;;;;4938128;29;20175;-83
2023/05/06 11:28:10;;;;;;;3.60;1.60;;;22.40;1.00;;;;;;4955362;29;20172;-81
2023/05/06 11:30:39;;;;;;;4.77;1.73;;;22.40;1.00;;;;;;4954251;28;20168;-80
2023/05/06 11:33:08;;;;;;;3.37;1.60;;;22.40;1.00;;;;;;4958582;29;20700;-81
2023/05/06 11:35:35;;;;;;;3.80;1.60;;;22.40;1.00;;;;;;4949966;28;20182;-85
2023/05/06 11:38:07;;;;;;;6.30;1.90;;;22.50;1.00;;;;;;4939977;29;20168;-82
2023/05/06 11:40:41;;;;;;;5.47;1.70;;;22.50;1.00;;;;;;4937821;29;20584;-81
2023/05/06 11:43:14;;;;;;;4.37;1.90;;;22.30;1.00;;;;;;4937739;29;20164;-85
2023/05/06 11:45:47;;;;;;;6.23;1.50;;;22.10;1.00;;;;;;4927795;29;20202;-84
2023/05/06 11:48:17;;;;;;;4.70;1.60;;;22.00;1.00;;;;;;4916769;29;20169;-82
2023/05/06 11:50:48;;;;;;;4.77;1.70;;;21.90;1.00;;;;;;4916142;29;20278;-85
2023/05/06 11:53:17;;;;;;;5.13;1.90;;;21.90;1.00;;;;;;4917704;29;20172;-85
2023/05/06 11:55:44;;;;;;;4.17;1.70;;;21.80;1.00;;;;;;4935240;29;20293;-81
2023/05/06 11:58:27;;;;;;;5.00;1.90;;;21.90;1.00;;;;;;4934230;29;20186;-81
2023/05/06 12:00:59;;;;;;;4.90;1.70;;;21.90;1.00;;;;;;4936747;29;20254;-83
2023/05/06 12:03:26;;;;;;;3.60;1.63;;;21.70;1.00;;;;;;4937383;29;20184;-81
2023/05/06 12:05:52;;;;;;;4.33;1.60;;;21.60;1.00;;;;;;4936850;29;20268;-81
2023/05/06 12:08:22;;;;;;;3.70;1.77;;;21.60;1.00;;;;;;4936178;29;20168;-83
2023/05/06 12:10:49;;;;;;;4.60;1.80;;;21.70;1.00;;;;;;4940614;29;20177;-82
2023/05/06 12:13:17;;;;;;;4.73;1.53;;;21.80;1.00;;;;;;4939492;29;20532;-80
2023/05/06 12:15:44;;;;;;;4.77;1.80;;;21.80;1.00;;;;;;4938217;29;20264;-81
2023/05/06 12:18:11;;;;;;;4.67;1.63;;;21.70;1.00;;;;;;4925530;29;20190;-86
2023/05/06 12:20:37;;;;;;;3.30;1.30;;;21.80;1.00;;;;;;4936590;29;20207;-80
2023/05/06 12:23:16;;;;;;;4.70;2.00;;;22.00;1.00;;;;;;4941658;29;20178;-83
2023/05/06 12:25:47;;;;;;;6.53;2.00;;;22.00;1.00;;;;;;4928674;29;20184;-83
2023/05/06 12:28:25;;;;;;;4.53;1.93;;;22.00;1.00;;;;;;4946089;29;20218;-81
2023/05/06 12:30:51;;;;;;;4.70;1.90;;;22.00;1.00;;;;;;4943509;29;20206;-87
2023/05/06 12:33:17;;;;;;;4.23;1.87;;;22.00;1.00;;;;;;4942793;29;20171;-82
2023/05/06 12:35:44;;;;;;;4.80;1.70;;;22.00;1.00;;;;;;4942520;29;20203;-85
2023/05/06 12:38:15;;;;;;;5.37;2.23;;;21.90;1.00;;;;;;4946270;29;20192;-86
2023/05/06 12:40:42;;;;;;;5.23;1.97;;;21.80;1.00;;;;;;4946244;29;20192;-85
2023/05/06 12:43:10;;;;;;;4.90;1.90;;;21.90;1.00;;;;;;4950894;29;20203;-80
2023/05/06 12:45:39;;;;;;;4.77;1.60;;;21.70;99.90;;;;;;4946156;29;20260;-81
2023/05/06 12:48:05;;;;;;;3.93;1.90;;;21.50;1.00;;;;;;4948028;29;20194;-88
2023/05/06 12:50:56;;;;;;;5.07;2.43;;;21.50;1.00;;;;;;4949071;29;20169;-85
2023/05/06 12:53:33;;;;;;;5.87;2.10;;;21.70;1.00;;;;;;4942594;29;20180;-80
2023/05/06 12:56:07;;;;;;;5.63;2.87;;;21.60;1.00;;;;;;4943236;29;20207;-81
2023/05/06 12:58:36;;;;;;;5.10;2.43;;;21.70;1.00;;;;;;4944205;29;20192;-79